Time;durP1;ratioP1;P1;durP2;ratioP2;P2;SDS_P1;SDS_P2;PMS_P1;PMS_P2;Temp;Humidity;BMP_temperature;BMP_pressure;BME280_temperature;BME280_humidity;BME280_pressure;Samples;Min_cycle;Max_cycle;Signal;HPM_P1;HPM_P2
2022/11/01 00:01:30;;;;;;;22.58;10.00;;;13.90;99.90;;;;;;5135629;27;20034;-82
2022/11/01 00:04:14;;;;;;;16.00;9.90;;;13.90;99.90;;;;;;5135215;27;20049;-81
2022/11/01 00:06:58;;;;;;;22.48;13.00;;;14.00;99.90;;;;;;5135055;27;20548;-81
2022/11/01 00:09:42;;;;;;;20.08;9.85;;;;;;;;;;5134761;27;20037;-81
2022/11/01 00:12:27;;;;;;;20.60;9.85;;;;;;;;;;5135491;27;20122;-81
2022/11/01 00:15:12;;;;;;;19.27;9.98;;;;;;;;;;5135515;27;20096;-81
2022/11/01 00:17:56;;;;;;;17.27;9.55;;;;;;;;;;5134350;27;20115;-81
2022/11/01 00:20:41;;;;;;;17.33;9.32;;;;;;;;;;5134734;27;20180;-81
2022/11/01 00:23:25;;;;;;;18.95;10.45;;;13.90;99.90;;;;;;5135004;27;20080;-81
2022/11/01 00:26:14;;;;;;;18.92;9.68;;;14.00;99.90;;;;;;5135193;27;20135;-81
2022/11/01 00:28:58;;;;;;;15.80;8.98;;;14.60;99.90;;;;;;5118859;27;20041;-82
2022/11/01 00:31:42;;;;;;;15.90;9.55;;;14.00;99.90;;;;;;5134540;27;20077;-81
2022/11/01 00:34:26;;;;;;;23.02;9.18;;;;;;;;;;5134010;27;20422;-82
2022/11/01 00:37:10;;;;;;;15.25;9.00;;;15.10;99.90;;;;;;5119215;27;20088;-81
2022/11/01 00:39:55;;;;;;;18.08;9.57;;;14.00;99.90;;;;;;5134368;27;20046;-81
2022/11/01 00:42:39;;;;;;;27.30;9.38;;;;;;;;;;5134613;27;20543;-81
2022/11/01 00:45:23;;;;;;;16.95;9.43;;;;;;;;;;5134650;27;20082;-81
2022/11/01 00:48:08;;;;;;;24.35;10.75;;;;;;;;;;5122593;27;20049;-81
2022/11/01 00:50:53;;;;;;;20.05;9.20;;;14.00;99.90;;;;;;5133954;27;20084;-81
2022/11/01 00:53:37;;;;;;;16.65;9.68;;;14.10;99.90;;;;;;5134612;27;20402;-81
2022/11/01 00:56:21;;;;;;;18.25;8.73;;;;;;;;;;5134603;27;20038;-81
2022/11/01 00:59:05;;;;;;;16.98;8.38;;;14.10;99.90;;;;;;5133818;27;20058;-81
2022/11/01 01:01:50;;;;;;;15.80;10.23;;;;;;;;;;5118395;27;20034;-82
2022/11/01 01:04:40;;;;;;;17.70;8.80;;;;;;;;;;5133675;27;20402;-81
2022/11/01 01:07:24;;;;;;;15.38;8.30;;;;;;;;;;5134280;27;20080;-81
2022/11/01 01:10:09;;;;;;;13.45;8.57;;;14.10;99.90;;;;;;5133392;27;20038;-81
2022/11/01 01:12:53;;;;;;;20.45;8.55;;;14.10;99.90;;;;;;5118150;27;20036;-81
2022/11/01 01:15:38;;;;;;;16.55;7.93;;;14.20;99.90;;;;;;5118561;27;20066;-81
2022/11/01 01:18:22;;;;;;;17.35;8.13;;;14.20;99.90;;;;;;5118640;27;20035;-81
2022/11/01 01:21:06;;;;;;;13.07;7.65;;;14.20;99.90;;;;;;5107914;27;20046;-81
2022/11/01 01:23:50;;;;;;;;;;;14.20;99.90;;;;;;5133704;27;20062;-82
2022/11/01 01:26:35;;;;;;;16.15;6.88;;;14.20;99.90;;;;;;5134030;27;20305;-80
2022/11/01 01:29:19;;;;;;;11.93;7.32;;;14.30;99.90;;;;;;5118353;27;20092;-81
2022/11/01 01:32:04;;;;;;;15.30;7.72;;;14.30;99.90;;;;;;5133287;27;20042;-82
2022/11/01 01:34:49;;;;;;;15.82;9.02;;;14.40;99.90;;;;;;5133762;27;20050;-81
2022/11/01 01:37:33;;;;;;;25.92;8.25;;;14.50;99.90;;;;;;5133569;27;20034;-81
2022/11/01 01:40:17;;;;;;;17.38;7.60;;;14.50;99.90;;;;;;5118261;27;20112;-81
2022/11/01 01:43:02;;;;;;;15.52;7.57;;;;;;;;;;5121473;27;20037;-81
2022/11/01 01:45:46;;;;;;;13.70;7.35;;;;;;;;;;5117675;27;20042;-81
2022/11/01 01:48:31;;;;;;;19.15;7.88;;;14.50;99.90;;;;;;5117842;27;20041;-82
2022/11/01 01:51:19;;;;;;;17.60;8.32;;;14.50;99.90;;;;;;5118911;27;20042;-81
2022/11/01 01:54:04;;;;;;;14.15;7.47;;;;;;;;;;5132882;27;20130;-82
2022/11/01 01:56:49;;;;;;;14.02;7.75;;;;;;;;;;5133459;27;20060;-81
2022/11/01 01:59:34;;;;;;;17.35;7.95;;;14.50;99.90;;;;;;5117686;27;20160;-82
2022/11/01 02:02:20;;;;;;;18.35;9.45;;;14.50;99.90;;;;;;5133033;27;20387;-82
2022/11/01 02:05:30;;;;;;;17.48;7.55;;;14.50;99.90;;;;;;5105123;27;20056;-82
2022/11/01 02:08:15;;;;;;;15.43;7.75;;;14.50;99.90;;;;;;5132827;27;20037;-81
2022/11/01 02:11:03;;;;;;;14.07;8.15;;;14.50;99.90;;;;;;5117095;27;20096;-82
2022/11/01 02:13:48;;;;;;;17.50;7.35;;;;;;;;;;5133279;27;20057;-82
2022/11/01 02:16:35;;;;;;;15.10;7.35;;;14.50;99.90;;;;;;5133011;27;20038;-81
2022/11/01 02:19:19;;;;;;;14.65;7.35;;;;;;;;;;5122718;27;20452;-81
2022/11/01 02:22:09;;;;;;;18.45;7.60;;;14.60;99.90;;;;;;5121544;27;20092;-81
2022/11/01 02:24:54;;;;;;;15.02;7.65;;;;;;;;;;5133169;27;20145;-81
2022/11/01 02:28:08;;;;;;;15.80;7.53;;;14.60;99.90;;;;;;5133524;27;20042;-81
2022/11/01 02:31:14;;;;;;;13.35;7.25;;;14.50;99.90;;;;;;5133255;27;20029;-82
2022/11/01 02:34:22;;;;;;;14.18;7.68;;;14.60;99.90;;;;;;5132480;27;20042;-81
2022/11/01 02:37:18;;;;;;;12.05;7.80;;;14.50;99.90;;;;;;5111375;28;20038;-82
2022/11/01 02:40:13;;;;;;;14.63;7.15;;;14.50;99.90;;;;;;5128145;28;20035;-83
2022/11/01 02:43:03;;;;;;;16.33;8.60;;;14.50;99.90;;;;;;5132749;28;20034;-81
2022/11/01 02:45:49;;;;;;;15.05;7.63;;;14.50;99.90;;;;;;5118403;28;20539;-81
2022/11/01 02:48:34;;;;;;;15.20;7.32;;;14.50;99.90;;;;;;5132838;28;20039;-81
2022/11/01 02:51:21;;;;;;;13.90;6.93;;;14.50;99.90;;;;;;5132084;28;20084;-81
2022/11/01 02:54:09;;;;;;;23.20;8.40;;;14.50;99.90;;;;;;5117585;28;20619;-82
2022/11/01 02:56:55;;;;;;;15.23;8.60;;;14.50;99.90;;;;;;5135027;27;20037;-81
2022/11/01 02:59:44;;;;;;;17.45;8.35;;;15.10;99.90;;;;;;5107551;27;20054;-81
2022/11/01 03:02:43;;;;;;;20.10;7.55;;;14.50;99.90;;;;;;5136335;27;20065;-82
2022/11/01 03:05:57;;;;;;;16.80;7.72;;;14.50;99.90;;;;;;5136128;27;20050;-81
2022/11/01 03:08:45;;;;;;;12.20;6.60;;;14.50;99.90;;;;;;5126948;27;20088;-81
2022/11/01 03:11:39;;;;;;;18.35;7.15;;;14.50;99.90;;;;;;5121323;27;20111;-81
2022/11/01 03:14:24;;;;;;;15.00;6.97;;;;;;;;;;5135883;27;20115;-81
2022/11/01 03:17:31;;;;;;;19.55;6.97;;;14.50;99.90;;;;;;5135893;27;20038;-82
2022/11/01 03:20:46;;;;;;;12.00;6.75;;;14.50;99.90;;;;;;5122497;27;20053;-81
2022/11/01 03:23:46;;;;;;;14.63;7.55;;;14.60;99.90;;;;;;5135615;27;20546;-81
2022/11/01 03:26:33;;;;;;;11.90;7.10;;;14.60;99.90;;;;;;5135674;27;20062;-81
2022/11/01 03:29:20;;;;;;;15.73;7.10;;;14.70;99.90;;;;;;5135807;27;20159;-81
2022/11/01 03:32:06;;;;;;;13.43;7.15;;;14.60;99.90;;;;;;5136220;27;20071;-82
2022/11/01 03:34:50;;;;;;;16.92;7.20;;;14.70;99.90;;;;;;5120455;27;20038;-81
2022/11/01 03:37:37;;;;;;;12.00;6.53;;;14.70;99.90;;;;;;5135691;27;20070;-81
2022/11/01 03:40:25;;;;;;;9.98;5.85;;;14.70;99.90;;;;;;5135448;27;20066;-81
2022/11/01 03:43:12;;;;;;;14.40;6.30;;;14.80;99.90;;;;;;5135847;27;20114;-82
2022/11/01 03:45:56;;;;;;;12.98;7.25;;;14.80;99.90;;;;;;5123280;27;20050;-82
2022/11/01 03:48:41;;;;;;;11.27;6.22;;;;;;;;;;5135729;27;20042;-81
2022/11/01 03:51:26;;;;;;;14.35;5.68;;;;;;;;;;5119771;27;20033;-81
2022/11/01 03:54:10;;;;;;;12.02;5.60;;;;;;;;;;5135610;27;20114;-81
2022/11/01 03:56:54;;;;;;;14.35;6.40;;;14.80;99.90;;;;;;5135847;27;20042;-81
2022/11/01 03:59:39;;;;;;;12.77;6.45;;;;;;;;;;5125308;27;20097;-81
2022/11/01 04:02:23;;;;;;;12.95;6.03;;;;;;;;;;5119362;27;20042;-81
2022/11/01 04:05:09;;;;;;;10.57;5.97;;;14.80;99.90;;;;;;5135568;27;20077;-81
2022/11/01 04:07:54;;;;;;;16.45;5.78;;;;;;;;;;5119762;27;20065;-81
2022/11/01 04:10:38;;;;;;;15.25;5.90;;;;;;;;;;5134765;27;20045;-82
2022/11/01 04:13:23;;;;;;;10.38;5.97;;;14.80;99.90;;;;;;5134545;27;20496;-81
2022/11/01 04:22:18;;;;;;;9.93;4.85;;;15.00;99.90;;;;;;5134934;27;20042;-82
2022/11/01 04:25:03;;;;;;;10.13;5.22;;;;;;;;;;5134815;27;20092;-81
2022/11/01 04:27:47;;;;;;;12.13;5.75;;;;;;;;;;5119254;27;20061;-82
2022/11/01 04:30:31;;;;;;;15.18;7.13;;;15.20;99.90;;;;;;5134682;27;20080;-81
2022/11/01 04:33:15;;;;;;;10.07;4.85;;;15.20;99.90;;;;;;5119309;27;20097;-81
2022/11/01 04:36:04;;;;;;;16.50;7.13;;;15.20;99.90;;;;;;5119385;27;20061;-81
2022/11/01 04:38:59;;;;;;;11.05;4.80;;;15.20;99.90;;;;;;5123121;27;20046;-82
2022/11/01 04:41:43;;;;;;;11.18;5.32;;;15.20;99.90;;;;;;5134171;27;20157;-81
2022/11/01 04:44:28;;;;;;;15.32;5.75;;;15.30;99.90;;;;;;5124315;27;20108;-82
2022/11/01 04:47:12;;;;;;;13.05;6.05;;;15.30;99.90;;;;;;5132726;27;20076;-81
2022/11/01 04:49:57;;;;;;;12.05;5.90;;;;;;;;;;5134795;27;20131;-82
2022/11/01 04:52:41;;;;;;;16.20;5.28;;;15.30;99.90;;;;;;5134064;27;20387;-81
2022/11/01 04:55:26;;;;;;;12.05;4.82;;;15.30;99.90;;;;;;5118589;27;20109;-82
2022/11/01 04:58:11;;;;;;;13.15;5.13;;;;;;;;;;5119030;27;20084;-81
2022/11/01 05:00:55;;;;;;;8.90;5.18;;;;;;;;;;5134328;27;20042;-81
2022/11/01 05:03:40;;;;;;;16.52;6.32;;;;;;;;;;5128616;27;20090;-81
2022/11/01 05:06:24;;;;;;;8.90;5.10;;;;;;;;;;5134506;27;20083;-81
2022/11/01 05:09:09;;;;;;;10.15;5.38;;;;;;;;;;5133670;27;20030;-81
2022/11/01 05:11:53;;;;;;;13.48;5.15;;;15.50;99.90;;;;;;5134223;27;20038;-81
2022/11/01 05:14:37;;;;;;;12.68;6.30;;;15.50;99.90;;;;;;5133486;27;20118;-81
2022/11/01 05:17:21;;;;;;;9.77;5.07;;;;;;;;;;5134085;27;20088;-81
2022/11/01 05:20:06;;;;;;;10.40;5.18;;;15.50;99.90;;;;;;5133571;27;20159;-81
2022/11/01 05:22:51;;;;;;;14.25;5.25;;;;;;;;;;5133325;27;20156;-81
2022/11/01 05:25:35;;;;;;;9.77;4.63;;;15.50;99.90;;;;;;5122804;27;20593;-81
2022/11/01 05:28:19;;;;;;;7.63;4.55;;;15.50;99.90;;;;;;5134069;27;20075;-81
2022/11/01 05:31:03;;;;;;;14.38;5.35;;;15.60;99.90;;;;;;5133677;27;20065;-81
2022/11/01 05:33:47;;;;;;;10.23;5.25;;;15.60;99.90;;;;;;5133158;27;20047;-81
2022/11/01 05:36:31;;;;;;;11.07;4.93;;;15.60;99.90;;;;;;5133262;27;20084;-82
2022/11/01 05:39:15;;;;;;;8.25;4.65;;;;;;;;;;5133802;27;20080;-81
2022/11/01 05:42:00;;;;;;;12.05;4.50;;;15.60;99.90;;;;;;5133905;27;20539;-81
2022/11/01 05:44:43;;;;;;;11.32;4.65;;;15.60;99.90;;;;;;5107711;27;20123;-81
2022/11/01 05:47:28;;;;;;;8.48;3.67;;;;;;;;;;5104008;27;20043;-81
2022/11/01 05:50:14;;;;;;;10.68;3.92;;;15.70;99.90;;;;;;5133390;27;20161;-80
2022/11/01 05:53:06;;;;;;;11.38;3.45;;;15.70;99.90;;;;;;5133413;27;20081;-80
2022/11/01 05:55:53;;;;;;;5.07;2.30;;;15.70;99.90;;;;;;5132813;27;20033;-83
2022/11/01 05:58:37;;;;;;;9.23;2.50;;;15.70;99.90;;;;;;5119693;27;20038;-82
2022/11/01 06:01:21;;;;;;;7.68;2.25;;;15.70;99.90;;;;;;5139582;27;20110;-81
2022/11/01 06:04:05;;;;;;;8.35;3.33;;;15.70;99.90;;;;;;5145031;27;20394;-81
2022/11/01 06:06:50;;;;;;;6.13;1.90;;;15.60;99.90;;;;;;5117938;27;20104;-82
2022/11/01 06:09:34;;;;;;;6.15;1.70;;;15.60;99.90;;;;;;5142794;27;20038;-81
2022/11/01 06:12:18;;;;;;;6.47;2.00;;;;;;;;;;5131628;27;20493;-83
2022/11/01 06:15:03;;;;;;;5.47;1.65;;;15.40;99.90;;;;;;5145625;27;20050;-80
2022/11/01 06:17:47;;;;;;;7.25;1.48;;;15.40;99.90;;;;;;5143591;27;20467;-81
2022/11/01 06:20:32;;;;;;;4.38;1.40;;;15.30;99.90;;;;;;5132592;27;20068;-81
2022/11/01 06:23:16;;;;;;;4.85;1.20;;;15.30;99.90;;;;;;5130486;27;20497;-81
2022/11/01 06:26:03;;;;;;;7.78;1.20;;;15.20;99.90;;;;;;5131907;27;20066;-80
2022/11/01 06:28:47;;;;;;;3.95;1.38;;;15.10;99.90;;;;;;5131268;27;20509;-81
2022/11/01 06:31:31;;;;;;;7.03;1.67;;;15.00;99.90;;;;;;5134104;27;20054;-81
2022/11/01 06:34:15;;;;;;;5.90;1.65;;;;;;;;;;5136921;27;20403;-80
2022/11/01 06:37:01;;;;;;;7.13;1.50;;;;;;;;;;5136267;27;20038;-81
2022/11/01 06:39:45;;;;;;;6.07;1.30;;;14.50;99.90;;;;;;5138562;27;20110;-80
2022/11/01 06:42:29;;;;;;;4.25;0.82;;;;;;;;;;5136129;27;20038;-82
2022/11/01 06:45:14;;;;;;;7.47;1.30;;;;;;;;;;5135170;27;20042;-80
2022/11/01 06:47:59;;;;;;;2.53;1.00;;;14.50;99.90;;;;;;5120541;27;20092;-81
2022/11/01 06:50:43;;;;;;;3.58;1.40;;;;;;;;;;5136166;27;20038;-82
2022/11/01 06:53:28;;;;;;;6.10;1.30;;;;;;;;;;5120975;27;20029;-80
2022/11/01 06:56:12;;;;;;;5.10;1.63;;;;;;;;;;5133595;27;20084;-81
2022/11/01 06:58:57;;;;;;;5.35;1.38;;;;;;;;;;5135802;27;20422;-80
2022/11/01 07:01:42;;;;;;;4.40;1.30;;;14.10;99.90;;;;;;5125672;27;20037;-81
2022/11/01 07:04:28;;;;;;;3.15;1.10;;;;;;;;;;5128439;27;20418;-80
2022/11/01 07:07:12;;;;;;;4.55;1.30;;;;;;;;;;5149233;27;20434;-80
2022/11/01 07:09:57;;;;;;;7.40;1.45;;;;;;;;;;5145505;27;20038;-80
2022/11/01 07:12:41;;;;;;;5.65;1.60;;;;;;;;;;5145930;27;20034;-81
2022/11/01 07:15:26;;;;;;;6.57;1.33;;;;;;;;;;5149132;27;20148;-80
2022/11/01 07:18:11;;;;;;;10.02;2.20;;;13.90;99.90;;;;;;5143673;27;20559;-82
2022/11/01 07:20:56;;;;;;;6.75;1.67;;;;;;;;;;5123112;27;20132;-81
2022/11/01 07:23:41;;;;;;;11.50;1.50;;;;;;;;;;5146784;27;20038;-81
2022/11/01 07:26:25;;;;;;;9.90;2.60;;;13.80;99.90;;;;;;5144694;27;20062;-80
2022/11/01 07:29:09;;;;;;;8.35;1.70;;;;;;;;;;5149193;27;20109;-80
2022/11/01 07:31:53;;;;;;;9.15;2.58;;;13.80;99.90;;;;;;5135177;27;20066;-81
2022/11/01 07:34:37;;;;;;;8.57;1.77;;;13.90;99.90;;;;;;5122995;27;20084;-80
2022/11/01 07:37:22;;;;;;;11.50;2.20;;;;;;;;;;5138024;27;20526;-81
2022/11/01 07:40:06;;;;;;;8.20;1.80;;;14.00;99.90;;;;;;5140626;27;20433;-80
2022/11/01 07:42:51;;;;;;;5.57;1.63;;;;;;;;;;5139733;27;20496;-81
2022/11/01 07:45:35;;;;;;;14.40;1.85;;;14.10;99.90;;;;;;5122665;27;20038;-81
2022/11/01 07:48:20;;;;;;;9.57;2.80;;;;;;;;;;5135918;27;20093;-80
2022/11/01 07:51:06;;;;;;;11.02;3.55;;;;;;;;;;5135355;27;20490;-81
2022/11/01 07:53:50;;;;;;;8.93;1.60;;;14.10;99.90;;;;;;5120023;27;20037;-81
2022/11/01 07:56:35;;;;;;;6.82;1.90;;;;;;;;;;5135786;27;20081;-80
2022/11/01 07:59:19;;;;;;;9.20;1.80;;;;;;;;;;5135427;27;20072;-81
2022/11/01 08:02:04;;;;;;;7.60;1.70;;;;;;;;;;5134989;27;20038;-81
2022/11/01 08:04:48;;;;;;;8.45;2.25;;;;;;;;;;5135547;27;20045;-80
2022/11/01 08:07:39;;;;;;;13.98;2.65;;;14.50;99.90;;;;;;5135448;27;20054;-81
2022/11/01 08:10:23;;;;;;;9.63;2.08;;;14.70;99.90;;;;;;5135494;27;20034;-81
2022/11/01 08:13:20;;;;;;;9.25;1.83;;;14.60;99.90;;;;;;5119458;27;20119;-80
2022/11/01 08:16:04;;;;;;;10.73;1.67;;;14.60;99.90;;;;;;5134699;27;20042;-80
2022/11/01 08:18:49;;;;;;;7.95;2.03;;;14.70;99.90;;;;;;5135335;27;20433;-80
2022/11/01 08:21:34;;;;;;;9.38;2.25;;;;;;;;;;5135397;27;20038;-80
2022/11/01 08:24:19;;;;;;;17.38;2.50;;;;;;;;;;5118832;27;20509;-81
2022/11/01 08:27:03;;;;;;;10.30;2.53;;;;;;;;;;5118761;27;20058;-81
2022/11/01 08:29:48;;;;;;;10.38;2.67;;;;;;;;;;5119640;27;20087;-80
2022/11/01 08:32:32;;;;;;;22.50;4.88;;;;;;;;;;5135256;27;20061;-80
2022/11/01 08:35:17;;;;;;;25.73;4.28;;;;;;;;;;5118965;27;20046;-81
2022/11/01 08:38:02;;;;;;;13.05;3.58;;;;;;;;;;5118678;27;20077;-82
2022/11/01 08:40:47;;;;;;;17.40;2.85;;;14.50;99.90;;;;;;5134910;27;20066;-81
2022/11/01 08:43:31;;;;;;;15.20;2.72;;;;;;;;;;5132816;27;20119;-81
2022/11/01 08:46:16;;;;;;;13.70;2.78;;;;;;;;;;5108689;27;20033;-80
2022/11/01 08:49:00;;;;;;;20.73;3.08;;;;;;;;;;5134319;27;20050;-83
2022/11/01 08:51:45;;;;;;;13.75;2.75;;;;;;;;;;5119122;27;20517;-81
2022/11/01 08:54:29;;;;;;;22.17;3.33;;;14.50;99.90;;;;;;5118144;27;20498;-81
2022/11/01 08:57:14;;;;;;;17.52;3.13;;;;;;;;;;5118317;27;20084;-81
2022/11/01 08:59:59;;;;;;;13.48;2.88;;;;;;;;;;5119286;27;20066;-81
2022/11/01 09:02:43;;;;;;;17.98;3.83;;;14.90;99.90;;;;;;5119197;27;20111;-81
2022/11/01 09:05:30;;;;;;;11.80;3.00;;;14.80;99.90;;;;;;5133914;27;20042;-82
2022/11/01 09:08:14;;;;;;;15.52;2.90;;;;;;;;;;5104194;27;20090;-83
2022/11/01 09:10:59;;;;;;;16.05;3.40;;;;;;;;;;5134209;27;20038;-80
2022/11/01 09:13:43;;;;;;;11.02;2.63;;;15.60;99.90;;;;;;5134336;27;20034;-81
2022/11/01 09:16:28;;;;;;;18.95;3.65;;;15.70;99.90;;;;;;5133691;27;20464;-81
2022/11/01 09:19:12;;;;;;;28.10;6.78;;;15.90;99.90;;;;;;5133484;27;20061;-81
2022/11/01 09:21:56;;;;;;;18.98;3.22;;;15.90;99.90;;;;;;5134057;27;20042;-81
2022/11/01 09:24:40;;;;;;;14.27;3.40;;;16.00;99.90;;;;;;5118297;27;20119;-81
2022/11/01 09:27:24;;;;;;;12.93;3.50;;;15.90;99.90;;;;;;5133641;27;20058;-80
2022/11/01 09:30:09;;;;;;;11.82;3.05;;;16.00;99.90;;;;;;5133476;27;20084;-83
2022/11/01 09:32:53;;;;;;;17.90;3.00;;;16.00;99.90;;;;;;5133784;27;20042;-80
2022/11/01 09:35:37;;;;;;;11.52;2.58;;;16.10;99.90;;;;;;5133905;27;20053;-80
2022/11/01 09:38:21;;;;;;;14.50;3.50;;;16.30;99.90;;;;;;5133139;27;20038;-80
2022/11/01 09:41:33;;;;;;;12.75;2.92;;;16.40;99.90;;;;;;5118324;27;20417;-80
2022/11/01 09:44:22;;;;;;;23.42;3.70;;;16.50;99.90;;;;;;5115440;27;20095;-81
2022/11/01 09:47:19;;;;;;;16.88;3.72;;;16.60;99.90;;;;;;5115094;27;20038;-80
2022/11/01 09:50:03;;;;;;;11.73;2.65;;;16.40;99.90;;;;;;5118146;27;20177;-81
2022/11/01 09:52:49;;;;;;;12.23;2.53;;;16.30;99.90;;;;;;5118201;27;20034;-81
2022/11/01 09:56:08;;;;;;;13.55;2.67;;;16.20;99.90;;;;;;5117495;27;21541;-81
2022/11/01 09:59:02;;;;;;;14.27;3.75;;;16.10;99.90;;;;;;5133460;27;20057;-81
2022/11/01 10:02:20;;;;;;;12.07;2.97;;;16.00;99.90;;;;;;5133690;27;20038;-81
2022/11/01 10:05:33;;;;;;;15.50;2.70;;;16.10;99.90;;;;;;5102568;28;20514;-80
2022/11/01 10:08:39;;;;;;;16.90;3.40;;;16.20;99.90;;;;;;5122224;27;20038;-80
2022/11/01 10:11:34;;;;;;;13.98;3.38;;;16.30;99.90;;;;;;5132808;27;20083;-81
2022/11/01 10:14:39;;;;;;;16.88;2.80;;;16.20;99.90;;;;;;5132530;27;20038;-81
2022/11/01 10:17:54;;;;;;;15.73;2.97;;;15.80;99.90;;;;;;5132602;27;20114;-81
2022/11/01 10:20:40;;;;;;;16.80;3.58;;;16.00;99.90;;;;;;5126299;28;20092;-81
2022/11/01 10:23:34;;;;;;;17.88;3.17;;;16.10;99.90;;;;;;5117172;28;20061;-80
2022/11/01 10:26:30;;;;;;;18.13;3.10;;;15.90;99.90;;;;;;5132158;27;20451;-81
2022/11/01 10:29:41;;;;;;;16.02;3.30;;;15.90;99.90;;;;;;5132910;28;20038;-82
2022/11/01 10:32:48;;;;;;;18.13;2.97;;;16.20;99.90;;;;;;5110501;28;20034;-80
2022/11/01 10:35:38;;;;;;;14.02;2.95;;;16.40;99.90;;;;;;5122216;28;20041;-82
2022/11/01 10:38:53;;;;;;;13.63;3.40;;;16.40;99.90;;;;;;5132424;28;20103;-80
2022/11/01 10:41:47;;;;;;;15.95;3.08;;;16.40;99.90;;;;;;5128513;28;20053;-81
2022/11/01 10:44:54;;;;;;;;;;;16.20;99.90;;;;;;5122515;28;20042;-81
2022/11/01 10:47:41;;;;;;;11.38;2.33;;;16.00;99.90;;;;;;5119642;28;19960;-80
2022/11/01 10:50:29;;;;;;;11.20;3.72;;;15.80;99.90;;;;;;5116731;28;20050;-80
2022/11/01 10:53:13;;;;;;;20.60;3.45;;;15.70;99.90;;;;;;5117374;28;20038;-80
2022/11/01 10:56:02;;;;;;;17.98;3.25;;;15.60;99.90;;;;;;5132874;28;20088;-81
2022/11/01 10:58:59;;;;;;;14.95;3.00;;;15.50;99.90;;;;;;5132831;28;20058;-79
2022/11/01 11:01:45;;;;;;;22.05;3.20;;;;;;;;;;5117183;28;20112;-82
2022/11/01 11:04:30;;;;;;;10.98;3.42;;;15.40;99.90;;;;;;5132283;28;20030;-81
2022/11/01 11:07:16;;;;;;;14.00;3.03;;;15.40;99.90;;;;;;5132656;28;20097;-81
2022/11/01 11:10:01;;;;;;;16.08;4.25;;;15.30;99.90;;;;;;5132766;28;20046;-80
2022/11/01 11:12:49;;;;;;;23.85;3.40;;;15.30;99.90;;;;;;5132633;28;20035;-81
2022/11/01 11:15:55;;;;;;;18.75;3.85;;;15.30;99.90;;;;;;5132220;28;20065;-81
2022/11/01 11:19:14;;;;;;;14.77;2.60;;;15.30;99.90;;;;;;5126124;27;20034;-80
2022/11/01 11:21:59;;;;;;;16.13;3.13;;;;;;;;;;5136553;27;20034;-81
2022/11/01 11:24:44;;;;;;;18.42;2.95;;;15.20;99.90;;;;;;5135581;27;20038;-81
2022/11/01 11:27:30;;;;;;;14.20;3.60;;;15.40;99.90;;;;;;5136045;27;20062;-81
2022/11/01 11:30:31;;;;;;;13.48;2.72;;;15.40;99.90;;;;;;5120810;27;20398;-81
2022/11/01 11:33:17;;;;;;;13.45;2.97;;;15.40;99.90;;;;;;5136050;27;20148;-81
2022/11/01 11:36:02;;;;;;;12.88;2.70;;;15.40;99.90;;;;;;5136335;27;20042;-81
2022/11/01 11:38:50;;;;;;;16.05;3.03;;;15.50;99.90;;;;;;5135849;27;20653;-80
2022/11/01 11:41:35;;;;;;;10.80;2.50;;;15.60;99.90;;;;;;5135437;27;20034;-81
2022/11/01 11:44:42;;;;;;;13.73;3.25;;;15.60;99.90;;;;;;5127339;27;20039;-81
2022/11/01 11:47:34;;;;;;;13.35;2.55;;;15.70;99.90;;;;;;5135430;27;20449;-81
2022/11/01 11:50:18;;;;;;;18.83;3.70;;;15.70;99.90;;;;;;5135844;27;20062;-80
2022/11/01 11:53:05;;;;;;;18.50;3.92;;;15.80;99.90;;;;;;5135804;27;20498;-81
2022/11/01 11:55:58;;;;;;;17.35;3.22;;;15.80;99.90;;;;;;5135492;27;20053;-81
2022/11/01 11:58:50;;;;;;;9.38;2.30;;;15.80;99.90;;;;;;5135030;27;20115;-81
2022/11/01 12:01:35;;;;;;;12.95;2.72;;;15.80;99.90;;;;;;5135318;27;20438;-81
2022/11/01 12:04:22;;;;;;;13.70;2.83;;;15.90;99.90;;;;;;5135331;27;20080;-81
2022/11/01 12:07:20;;;;;;;11.80;2.50;;;15.90;99.90;;;;;;5135643;27;20076;-82
2022/11/01 12:10:25;;;;;;;13.13;2.95;;;16.00;99.90;;;;;;5135566;27;20062;-81
2022/11/01 12:13:36;;;;;;;12.30;2.95;;;16.00;99.90;;;;;;5135506;27;20039;-81
2022/11/01 12:16:23;;;;;;;13.07;2.50;;;16.00;99.90;;;;;;5119724;27;20393;-81
2022/11/01 12:19:21;;;;;;;8.60;2.58;;;16.00;99.90;;;;;;5135125;27;20084;-81
2022/11/01 12:22:09;;;;;;;14.50;2.75;;;16.10;99.90;;;;;;5135303;27;20110;-81
2022/11/01 12:24:59;;;;;;;13.65;2.53;;;16.10;99.90;;;;;;5119403;27;20046;-81
2022/11/01 12:27:55;;;;;;;10.48;2.65;;;16.10;99.90;;;;;;5119475;27;20058;-81
2022/11/01 12:30:42;;;;;;;13.00;2.78;;;16.20;99.90;;;;;;5134518;27;20037;-81
2022/11/01 12:33:32;;;;;;;11.75;2.90;;;16.30;99.90;;;;;;5135053;27;20075;-81
2022/11/01 12:36:23;;;;;;;15.40;3.65;;;16.30;99.90;;;;;;5119245;27;20121;-81
2022/11/01 12:39:20;;;;;;;13.05;2.70;;;16.40;99.90;;;;;;5134955;27;20042;-81
2022/11/01 12:42:04;;;;;;;10.13;2.75;;;16.40;99.90;;;;;;5134896;27;20057;-81
2022/11/01 12:44:55;;;;;;;10.68;2.60;;;16.50;99.90;;;;;;5121532;27;20046;-81
2022/11/01 12:47:45;;;;;;;10.55;2.20;;;16.60;99.90;;;;;;5111647;27;20034;-81
2022/11/01 12:50:41;;;;;;;11.77;2.60;;;16.90;99.90;;;;;;5136361;27;20079;-81
2022/11/01 12:53:32;;;;;;;16.13;3.15;;;17.20;99.90;;;;;;5134835;27;20034;-81
2022/11/01 12:56:17;;;;;;;11.38;2.65;;;16.70;99.90;;;;;;5122923;27;20042;-81
2022/11/01 12:59:02;;;;;;;12.63;2.67;;;16.90;99.90;;;;;;5134371;27;20096;-81
2022/11/01 13:02:19;;;;;;;14.18;2.33;;;17.00;99.90;;;;;;5134038;27;20091;-81
2022/11/01 13:05:14;;;;;;;9.52;2.30;;;17.10;99.90;;;;;;5103650;28;20091;-82
2022/11/01 13:08:17;;;;;;;10.55;2.72;;;17.00;99.90;;;;;;5105300;27;20038;-81
2022/11/01 13:11:21;;;;;;;12.77;2.97;;;17.00;99.90;;;;;;5118663;27;20099;-82
2022/11/01 13:14:47;;;;;;;13.43;2.30;;;17.10;99.90;;;;;;5134083;27;20042;-82
2022/11/01 13:17:40;;;;;;;10.68;1.95;;;17.20;99.90;;;;;;5118591;27;20255;-80
2022/11/01 13:20:31;;;;;;;13.27;2.85;;;17.00;99.90;;;;;;5134203;27;20426;-81
2022/11/01 13:23:28;;;;;;;15.57;3.22;;;17.10;99.90;;;;;;5134086;27;20043;-81
2022/11/01 13:26:26;;;;;;;20.70;4.57;;;17.20;99.90;;;;;;5133835;27;20443;-81
2022/11/01 13:29:48;;;;;;;15.48;3.85;;;17.20;99.90;;;;;;5134021;27;20126;-81
2022/11/01 13:33:00;;;;;;;10.60;2.53;;;17.60;99.90;;;;;;5083578;28;20047;-81
2022/11/01 13:35:55;;;;;;;8.15;2.13;;;17.30;99.90;;;;;;5109103;27;20164;-81
2022/11/01 13:38:39;;;;;;;12.13;2.47;;;17.30;99.90;;;;;;5133405;27;20034;-82
2022/11/01 13:42:01;;;;;;;9.13;2.40;;;17.40;99.90;;;;;;5117568;27;20084;-81
2022/11/01 13:45:00;;;;;;;11.38;2.55;;;17.40;99.90;;;;;;5088520;28;20105;-81
2022/11/01 13:47:55;;;;;;;10.07;2.08;;;16.80;99.90;;;;;;5121128;27;20029;-81
2022/11/01 13:50:42;;;;;;;8.25;2.28;;;17.20;99.90;;;;;;5133103;27;20029;-82
2022/11/01 13:53:40;;;;;;;10.07;1.98;;;17.10;99.90;;;;;;5118002;27;20094;-81
2022/11/01 13:56:35;;;;;;;7.93;2.25;;;17.00;99.90;;;;;;5133530;27;20527;-81
2022/11/01 13:59:30;;;;;;;10.13;2.17;;;16.90;99.90;;;;;;5133323;27;20482;-81
2022/11/01 14:02:27;;;;;;;6.97;1.88;;;16.90;99.90;;;;;;5133335;27;20154;-81
2022/11/01 14:05:12;;;;;;;12.45;2.63;;;16.50;99.90;;;;;;5117845;27;20394;-81
2022/11/01 14:08:03;;;;;;;9.60;1.83;;;16.70;99.90;;;;;;5132846;27;20073;-82
2022/11/01 14:10:48;;;;;;;11.27;2.40;;;16.70;99.90;;;;;;5132701;27;20060;-82
2022/11/01 14:13:39;;;;;;;15.48;2.67;;;16.60;99.90;;;;;;5117966;27;20440;-81
2022/11/01 14:16:23;;;;;;;11.38;2.15;;;16.50;99.90;;;;;;5104060;27;20532;-82
2022/11/01 14:19:14;;;;;;;11.15;2.03;;;16.20;99.90;;;;;;5117318;28;20505;-82
2022/11/01 14:21:59;;;;;;;13.60;2.88;;;16.30;99.90;;;;;;5132731;28;20038;-81
2022/11/01 14:24:57;;;;;;;6.68;2.00;;;16.30;99.90;;;;;;5117081;28;20092;-82
2022/11/01 14:27:46;;;;;;;9.60;2.05;;;16.20;99.90;;;;;;5133254;28;20454;-81
2022/11/01 14:30:33;;;;;;;12.85;2.88;;;16.20;99.90;;;;;;5133195;28;20034;-81
2022/11/01 14:33:19;;;;;;;11.55;2.40;;;16.10;99.90;;;;;;5132941;28;20038;-81
2022/11/01 14:36:11;;;;;;;5.68;1.92;;;16.00;99.90;;;;;;5132361;28;20046;-82
2022/11/01 14:39:05;;;;;;;12.32;2.20;;;16.00;99.90;;;;;;5132581;28;20065;-82
2022/11/01 14:41:51;;;;;;;9.77;2.10;;;15.90;99.90;;;;;;5132344;28;20030;-82
2022/11/01 14:44:40;;;;;;;10.27;2.08;;;15.90;99.90;;;;;;5122123;28;20070;-81
2022/11/01 14:47:39;;;;;;;11.68;2.00;;;15.80;99.90;;;;;;5132477;28;20030;-81
2022/11/01 14:50:53;;;;;;;7.38;1.80;;;15.80;99.90;;;;;;5117349;28;20041;-81
2022/11/01 14:53:40;;;;;;;6.22;1.60;;;;;;;;;;5093044;27;20044;-81
2022/11/01 14:56:34;;;;;;;13.85;2.70;;;15.60;99.90;;;;;;5121371;27;20035;-81
2022/11/01 14:59:24;;;;;;;7.55;2.40;;;15.60;99.90;;;;;;5136759;27;20153;-81
2022/11/01 15:02:10;;;;;;;11.35;2.75;;;15.60;99.90;;;;;;5136078;27;20494;-81
2022/11/01 15:04:59;;;;;;;10.15;2.10;;;15.50;99.90;;;;;;5136346;27;20046;-81
2022/11/01 15:07:49;;;;;;;9.18;2.20;;;15.50;99.90;;;;;;5121085;27;20383;-81